Morgantown, WV

2:26 PM EDT on September 03, 2015 (GMT -0400)
Morgantown Municipal-Hart | | Change Station
CLOSE
Current Station
Airport
Location: Morgantown,
Elevation: 1247 ft
Nearby Weather Stations

Elev 1247 ft 39.64 °N, 79.92 °W | Updated 33 minutes ago

Partly Cloudy
Partly Cloudy
85 °F
Feels Like 87 °F
N
6
Wind Variable Wind from West

Today
High -- | Low -- °F
--% Chance of Precip.
Yesterday
High -- | Low -- °F
Precip. -- in
6:49 AM 7:48 PM
Waning Gibbous, 68% visible
Pressure 29.98 in
Visibility 10.0 miles
Clouds Few 6000 ft
Heat Index 87 °F
Dew Point 65 °F
Humidity 51%
Rainfall 0.01 in
Snow Depth Not available.
UV 8 out of 12
Pollen 8.80 out of 12
Air Quality Not available.
Flu Activity Not available.
METAR KMGW 031753Z 28005KT 10SM FEW060 29/18 A3001 RMK AO2 SLP150 60001 T02940183 10300 20206 56016
Pressure 29.98 in
Visibility 10.0 miles
Clouds Few 6000 ft
Heat Index 87 °F
Dew Point 65 °F
Humidity 51%
Rainfall 0.01 in
Snow Depth Not available.
UV 8 out of 12
Pollen 8.80 out of 12
Air Quality Not available.
Flu Activity Not available.
METAR KMGW 031753Z 28005KT 10SM FEW060 29/18 A3001 RMK AO2 SLP150 60001 T02940183 10300 20206 56016

10-Day Weather Forecast

×

Almanac

Astronomy

Sep. 03, 2015 Rise Set
Actual Time
Civil Twilight
Nautical Twilight
Astronomical Twilight
Moon
Length of Visible Light
Length of Day
Tomorrow will be .
, % of the Moon is Illuminated

Today's Extremes

State Highs State Lows

Community

WunderPhotos

Upload Photos

1,851,999 photos uploaded!

WunderBlogs® & News

Nearby

Air Quality

  Air Quality AQ Index Pollutant
Not available.

Snow Depth

Station Depth Elevation

Earthquake Activity

City Distance Mag. Time & Date
Minimum magnitude displayed is 2.5.

Coastal Water Temperatures

Place Temperature

Stations

Nearby Weather Stations

Station Location Temp. Windchill Dew Point Humidity Wind Precip. Elev Updated Type